Time,TemperatureF,DewpointF,PressureIn,WindDirection,WindDirectionDegrees,WindSpeedMPH,WindSpeedGustMPH,Humidity,HourlyPrecipIn,Conditions,Clouds,dailyrainin,SoftwareType,DateUTC
2013-02-13 00:21:00,48.0,38.0,30.25,NE,40,3.0,-999.0,67,0.00,,,-99.99,,2013-02-13 08:21:00,
2013-02-13 00:31:00,48.0,38.0,30.25,NE,40,3.0,-999.0,67,0.00,,,-99.99,,2013-02-13 08:31:00,
2013-02-13 00:43:00,48.0,38.0,30.25,NE,40,3.0,-999.0,67,0.00,,,-99.99,,2013-02-13 08:43:00,
2013-02-13 01:21:00,48.0,36.0,30.25,North,0,0.0,-999.0,64,0.00,,,-99.99,,2013-02-13 09:21:00,
2013-02-13 01:31:00,48.0,36.0,30.25,North,0,0.0,-999.0,64,0.00,,,-99.99,,2013-02-13 09:31:00,
2013-02-13 01:41:00,48.0,36.0,30.25,North,0,0.0,-999.0,64,0.00,,,-99.99,,2013-02-13 09:41:00,
2013-02-13 02:21:00,49.0,40.0,30.23,NE,40,2.0,-999.0,71,0.00,,,-99.99,,2013-02-13 10:21:00,
2013-02-13 02:32:00,49.0,40.0,30.23,NE,40,2.0,-999.0,71,0.00,,,-99.99,,2013-02-13 10:32:00,
2013-02-13 02:41:00,49.0,40.0,30.23,NE,40,2.0,-999.0,71,0.00,,,-99.99,,2013-02-13 10:41:00,
2013-02-13 03:22:00,48.0,38.0,30.21,North,0,0.0,-999.0,68,0.00,,,-99.99,,2013-02-13 11:22:00,
2013-02-13 03:32:00,48.0,38.0,30.21,North,0,0.0,-999.0,68,0.00,,,-99.99,,2013-02-13 11:32:00,
2013-02-13 03:42:00,48.0,38.0,30.21,North,0,0.0,-999.0,68,0.00,,,-99.99,,2013-02-13 11:42:00,
2013-02-13 04:21:00,48.0,39.0,30.22,NE,40,1.0,-999.0,71,0.00,,,-99.99,,2013-02-13 12:21:00,
2013-02-13 04:32:00,48.0,39.0,30.22,NE,40,1.0,-999.0,71,0.00,,,-99.99,,2013-02-13 12:32:00,
2013-02-13 04:42:00,48.0,39.0,30.22,NE,40,1.0,-999.0,71,0.00,,,-99.99,,2013-02-13 12:42:00,
2013-02-13 05:21:00,46.0,37.0,30.22,NE,40,1.0,-999.0,70,0.00,,,-99.99,,2013-02-13 13:21:00,
2013-02-13 05:31:00,46.0,37.0,30.22,NE,40,1.0,-999.0,70,0.00,,,-99.99,,2013-02-13 13:31:00,
2013-02-13 05:41:00,46.0,37.0,30.22,NE,40,1.0,-999.0,70,0.00,,,-99.99,,2013-02-13 13:41:00,
2013-02-13 06:21:00,47.0,36.0,30.22,North,0,0.0,-999.0,65,0.00,,,-99.99,,2013-02-13 14:21:00,
2013-02-13 06:31:00,47.0,36.0,30.22,North,0,0.0,-999.0,65,0.00,,,-99.99,,2013-02-13 14:31:00,
2013-02-13 06:41:00,47.0,36.0,30.22,North,0,0.0,-999.0,65,0.00,,,-99.99,,2013-02-13 14:41:00,
2013-02-13 07:21:00,46.0,36.0,30.23,NE,40,2.0,-999.0,68,0.00,,,-99.99,,2013-02-13 15:21:00,
2013-02-13 07:32:00,46.0,36.0,30.23,NE,40,2.0,-999.0,68,0.00,,,-99.99,,2013-02-13 15:32:00,
2013-02-13 07:42:00,46.0,36.0,30.23,NE,40,2.0,-999.0,68,0.00,,,-99.99,,2013-02-13 15:42:00,
2013-02-13 08:21:00,49.0,39.0,30.24,NE,40,4.0,-999.0,67,0.00,,,-99.99,,2013-02-13 16:21:00,
2013-02-13 08:31:00,49.0,39.0,30.24,NE,40,4.0,-999.0,67,0.00,,,-99.99,,2013-02-13 16:31:00,
2013-02-13 08:41:00,49.0,39.0,30.24,NE,40,4.0,-999.0,67,0.00,,,-99.99,,2013-02-13 16:41:00,
2013-02-13 09:21:00,53.0,39.0,30.24,North,0,0.0,-999.0,60,0.00,,,-99.99,,2013-02-13 17:21:00,
2013-02-13 09:31:00,53.0,39.0,30.24,North,0,0.0,-999.0,60,0.00,,,-99.99,,2013-02-13 17:31:00,
2013-02-13 09:41:00,53.0,39.0,30.24,North,0,0.0,-999.0,60,0.00,,,-99.99,,2013-02-13 17:41:00,
2013-02-13 10:22:00,55.0,42.0,30.24,SW,220,2.0,-999.0,62,0.00,,,-99.99,,2013-02-13 18:22:00,
2013-02-13 10:32:00,55.0,42.0,30.24,SW,220,2.0,-999.0,62,0.00,,,-99.99,,2013-02-13 18:32:00,
2013-02-13 10:41:00,55.0,42.0,30.24,SW,220,2.0,-999.0,62,0.00,,,-99.99,,2013-02-13 18:41:00,
2013-02-13 11:21:00,54.0,43.0,30.24,SW,220,5.0,-999.0,65,0.00,,,-99.99,,2013-02-13 19:21:00,
2013-02-13 11:31:00,54.0,43.0,30.24,SW,220,5.0,-999.0,65,0.00,,,-99.99,,2013-02-13 19:31:00,
2013-02-13 11:41:00,54.0,43.0,30.24,SW,220,5.0,-999.0,65,0.00,,,-99.99,,2013-02-13 19:41:00,
2013-02-13 12:21:00,55.0,48.0,30.22,WSW,240,2.0,-999.0,76,0.00,,,-99.99,,2013-02-13 20:21:00,
2013-02-13 12:31:00,55.0,48.0,30.22,WSW,240,2.0,-999.0,76,0.00,,,-99.99,,2013-02-13 20:31:00,
2013-02-13 12:41:00,55.0,48.0,30.22,WSW,240,2.0,-999.0,76,0.00,,,-99.99,,2013-02-13 20:41:00,
2013-02-13 13:21:00,55.0,49.0,30.19,West,260,4.0,-999.0,79,0.00,,,-99.99,,2013-02-13 21:21:00,
2013-02-13 13:31:00,55.0,49.0,30.19,West,260,4.0,-999.0,79,0.00,,,-99.99,,2013-02-13 21:31:00,
2013-02-13 13:42:00,55.0,49.0,30.19,West,260,4.0,-999.0,79,0.00,,,-99.99,,2013-02-13 21:42:00,
2013-02-13 14:21:00,55.0,49.0,30.16,West,280,4.0,-999.0,81,0.00,,,-99.99,,2013-02-13 22:21:00,
2013-02-13 14:31:00,55.0,49.0,30.16,West,280,4.0,-999.0,81,0.00,,,-99.99,,2013-02-13 22:31:00,
2013-02-13 14:42:00,55.0,49.0,30.16,West,280,4.0,-999.0,81,0.00,,,-99.99,,2013-02-13 22:42:00,
2013-02-13 15:21:00,58.0,51.0,30.14,West,280,4.0,-999.0,78,0.00,,,-99.99,,2013-02-13 23:21:00,
2013-02-13 15:32:00,58.0,51.0,30.14,West,280,4.0,-999.0,78,0.00,,,-99.99,,2013-02-13 23:32:00,
2013-02-13 15:41:00,58.0,51.0,30.14,West,280,4.0,-999.0,78,0.00,,,-99.99,,2013-02-13 23:41:00,
2013-02-13 16:21:00,56.0,49.0,30.13,WNW,290,6.0,-999.0,78,0.00,,,-99.99,,2013-02-14 00:21:00,
2013-02-13 16:32:00,56.0,49.0,30.13,WNW,290,6.0,-999.0,78,0.00,,,-99.99,,2013-02-14 00:32:00,
2013-02-13 16:42:00,56.0,49.0,30.13,WNW,290,6.0,-999.0,78,0.00,,,-99.99,,2013-02-14 00:42:00,
2013-02-13 17:21:00,56.0,50.0,30.12,NW,310,9.0,-999.0,80,0.00,,,-99.99,,2013-02-14 01:21:00,
2013-02-13 17:31:00,56.0,50.0,30.12,NW,310,9.0,-999.0,80,0.00,,,-99.99,,2013-02-14 01:31:00,
2013-02-13 17:41:00,56.0,50.0,30.12,NW,310,9.0,-999.0,80,0.00,,,-99.99,,2013-02-14 01:41:00,
2013-02-13 18:21:00,56.0,49.0,30.13,WNW,300,12.0,-999.0,78,0.00,,,-99.99,,2013-02-14 02:21:00,
2013-02-13 18:31:00,56.0,49.0,30.13,WNW,300,12.0,-999.0,78,0.00,,,-99.99,,2013-02-14 02:31:00,
2013-02-13 18:41:00,56.0,49.0,30.13,WNW,300,12.0,-999.0,78,0.00,,,-99.99,,2013-02-14 02:41:00,
2013-02-13 19:21:00,55.0,49.0,30.14,NW,320,6.0,-999.0,81,0.00,,,-99.99,,2013-02-14 03:21:00,
2013-02-13 19:31:00,55.0,49.0,30.14,NW,320,6.0,-999.0,81,0.00,,,-99.99,,2013-02-14 03:31:00,
2013-02-13 19:42:00,55.0,49.0,30.14,NW,320,6.0,-999.0,81,0.00,,,-99.99,,2013-02-14 03:42:00,
2013-02-13 21:21:00,53.0,46.0,30.15,East,100,2.0,-999.0,78,0.00,,,-99.99,,2013-02-14 05:21:00,
2013-02-13 21:31:00,53.0,46.0,30.15,East,100,2.0,-999.0,78,0.00,,,-99.99,,2013-02-14 05:31:00,
2013-02-13 21:41:00,53.0,46.0,30.15,East,100,2.0,-999.0,78,0.00,,,-99.99,,2013-02-14 05:41:00,
2013-02-13 22:21:00,52.0,44.0,30.15,NNE,30,3.0,-999.0,73,0.00,,,-99.99,,2013-02-14 06:21:00,
2013-02-13 22:31:00,52.0,44.0,30.15,NNE,30,3.0,-999.0,73,0.00,,,-99.99,,2013-02-14 06:31:00,
2013-02-13 22:41:00,52.0,44.0,30.15,NNE,30,3.0,-999.0,73,0.00,,,-99.99,,2013-02-14 06:41:00,
2013-02-13 23:21:00,52.0,45.0,30.16,NNE,30,3.0,-999.0,76,0.00,,,-99.99,,2013-02-14 07:21:00,
2013-02-13 23:31:00,52.0,45.0,30.16,NNE,30,3.0,-999.0,76,0.00,,,-99.99,,2013-02-14 07:31:00,
2013-02-13 23:41:00,52.0,45.0,30.16,NNE,30,3.0,-999.0,76,0.00,,,-99.99,,2013-02-14 07:41:00,